sensor_id;sensor_type;location;lat;lon;timestamp;P1;durP1;ratioP1;P2;durP2;ratioP2
54545;SDS011;40444;45.184;9.850;2024-01-16T18:32:46;85.53;;;42.78;;
54545;SDS011;40444;45.184;9.850;2024-01-16T18:35:18;98.28;;;45.28;;
54545;SDS011;40444;45.184;9.850;2024-01-16T18:40:56;85.78;;;44.67;;
54545;SDS011;40444;45.184;9.850;2024-01-16T18:43:28;88.78;;;44.45;;
54545;SDS011;40444;45.184;9.850;2024-01-16T18:46:11;85.20;;;42.55;;
54545;SDS011;40444;45.184;9.850;2024-01-16T18:48:42;72.68;;;38.95;;
54545;SDS011;40444;45.184;9.850;2024-01-16T18:51:24;69.40;;;39.85;;
54545;SDS011;40444;45.184;9.850;2024-01-16T18:54:36;73.22;;;39.33;;
54545;SDS011;40444;45.184;9.850;2024-01-16T18:57:37;71.20;;;37.45;;
54545;SDS011;40444;45.184;9.850;2024-01-16T19:00:22;68.13;;;35.90;;
54545;SDS011;40444;45.184;9.850;2024-01-16T19:07:47;57.58;;;34.58;;
54545;SDS011;40444;45.184;9.850;2024-01-16T19:11:01;65.63;;;36.25;;
54545;SDS011;40444;45.184;9.850;2024-01-16T19:14:05;71.47;;;37.47;;
54545;SDS011;40444;45.184;9.850;2024-01-16T19:16:54;63.78;;;35.60;;
54545;SDS011;40444;45.184;9.850;2024-01-16T19:19:41;62.70;;;37.40;;
54545;SDS011;40444;45.184;9.850;2024-01-16T19:22:26;66.35;;;37.92;;
54545;SDS011;40444;45.184;9.850;2024-01-16T19:25:18;66.88;;;36.53;;
54545;SDS011;40444;45.184;9.850;2024-01-16T19:28:16;66.32;;;36.25;;
54545;SDS011;40444;45.184;9.850;2024-01-16T19:31:47;73.10;;;37.40;;
54545;SDS011;40444;45.184;9.850;2024-01-16T19:35:11;79.85;;;39.65;;
54545;SDS011;40444;45.184;9.850;2024-01-16T19:39:03;70.85;;;38.05;;
54545;SDS011;40444;45.184;9.850;2024-01-16T19:41:47;72.28;;;40.30;;
54545;SDS011;40444;45.184;9.850;2024-01-16T19:44:33;65.80;;;37.25;;
54545;SDS011;40444;45.184;9.850;2024-01-16T19:47:16;78.63;;;37.72;;
54545;SDS011;40444;45.184;9.850;2024-01-16T19:49:46;74.30;;;40.30;;
54545;SDS011;40444;45.184;9.850;2024-01-16T19:52:28;84.07;;;41.08;;
54545;SDS011;40444;45.184;9.850;2024-01-16T19:55:13;82.53;;;40.28;;
54545;SDS011;40444;45.184;9.850;2024-01-16T19:57:57;73.15;;;40.05;;
54545;SDS011;40444;45.184;9.850;2024-01-16T20:00:42;81.63;;;39.65;;
54545;SDS011;40444;45.184;9.850;2024-01-16T20:03:25;79.22;;;41.25;;
54545;SDS011;40444;45.184;9.850;2024-01-16T20:06:12;85.95;;;40.00;;
54545;SDS011;40444;45.184;9.850;2024-01-16T20:09:31;78.53;;;40.17;;
54545;SDS011;40444;45.184;9.850;2024-01-16T20:13:06;76.53;;;38.90;;
54545;SDS011;40444;45.184;9.850;2024-01-16T20:16:29;77.95;;;38.90;;
54545;SDS011;40444;45.184;9.850;2024-01-16T20:19:40;78.25;;;39.65;;
54545;SDS011;40444;45.184;9.850;2024-01-16T20:22:45;77.78;;;39.63;;
54545;SDS011;40444;45.184;9.850;2024-01-16T20:26:38;84.75;;;39.47;;
54545;SDS011;40444;45.184;9.850;2024-01-16T20:30:17;80.88;;;39.72;;
54545;SDS011;40444;45.184;9.850;2024-01-16T20:33:01;77.07;;;39.05;;
54545;SDS011;40444;45.184;9.850;2024-01-16T20:40:16;87.10;;;41.35;;
54545;SDS011;40444;45.184;9.850;2024-01-16T20:43:17;114.25;;;60.05;;
54545;SDS011;40444;45.184;9.850;2024-01-16T20:46:22;100.90;;;51.33;;
54545;SDS011;40444;45.184;9.850;2024-01-16T20:49:28;87.82;;;45.58;;
54545;SDS011;40444;45.184;9.850;2024-01-16T20:56:06;83.75;;;41.03;;
54545;SDS011;40444;45.184;9.850;2024-01-16T21:05:17;79.27;;;38.73;;
54545;SDS011;40444;45.184;9.850;2024-01-16T21:08:52;77.00;;;39.13;;
54545;SDS011;40444;45.184;9.850;2024-01-16T21:15:12;75.97;;;38.47;;
54545;SDS011;40444;45.184;9.850;2024-01-16T21:21:26;67.20;;;35.15;;
54545;SDS011;40444;45.184;9.850;2024-01-16T21:24:35;73.88;;;37.08;;
54545;SDS011;40444;45.184;9.850;2024-01-16T21:27:29;69.20;;;36.97;;
54545;SDS011;40444;45.184;9.850;2024-01-16T21:30:49;70.38;;;37.55;;
54545;SDS011;40444;45.184;9.850;2024-01-16T21:33:40;81.50;;;41.08;;
54545;SDS011;40444;45.184;9.850;2024-01-16T21:36:33;77.72;;;38.35;;
54545;SDS011;40444;45.184;9.850;2024-01-16T21:39:48;72.15;;;37.58;;
54545;SDS011;40444;45.184;9.850;2024-01-16T21:42:43;73.97;;;40.00;;
54545;SDS011;40444;45.184;9.850;2024-01-16T21:49:27;71.35;;;37.75;;
54545;SDS011;40444;45.184;9.850;2024-01-16T21:55:21;71.70;;;38.70;;
54545;SDS011;40444;45.184;9.850;2024-01-16T21:58:08;61.63;;;37.65;;
54545;SDS011;40444;45.184;9.850;2024-01-16T22:07:54;66.00;;;36.78;;
54545;SDS011;40444;45.184;9.850;2024-01-16T22:11:07;69.82;;;38.83;;
54545;SDS011;40444;45.184;9.850;2024-01-16T22:13:56;76.40;;;43.45;;
54545;SDS011;40444;45.184;9.850;2024-01-16T22:16:48;69.80;;;38.42;;
54545;SDS011;40444;45.184;9.850;2024-01-16T22:22:44;69.95;;;41.45;;
54545;SDS011;40444;45.184;9.850;2024-01-16T22:25:15;77.35;;;40.13;;
54545;SDS011;40444;45.184;9.850;2024-01-16T22:28:41;79.22;;;41.45;;
54545;SDS011;40444;45.184;9.850;2024-01-16T22:31:51;74.40;;;40.10;;
54545;SDS011;40444;45.184;9.850;2024-01-16T22:35:02;78.63;;;44.83;;
54545;SDS011;40444;45.184;9.850;2024-01-16T22:37:45;70.45;;;40.00;;
54545;SDS011;40444;45.184;9.850;2024-01-16T22:41:09;73.65;;;37.00;;
54545;SDS011;40444;45.184;9.850;2024-01-16T22:44:04;70.13;;;39.08;;
54545;SDS011;40444;45.184;9.850;2024-01-16T22:46:57;71.97;;;39.42;;
54545;SDS011;40444;45.184;9.850;2024-01-16T22:49:45;71.78;;;38.58;;
54545;SDS011;40444;45.184;9.850;2024-01-16T22:52:35;68.60;;;37.08;;
54545;SDS011;40444;45.184;9.850;2024-01-16T22:55:25;70.72;;;36.75;;
54545;SDS011;40444;45.184;9.850;2024-01-16T22:58:40;77.90;;;40.22;;
54545;SDS011;40444;45.184;9.850;2024-01-16T23:01:29;81.20;;;40.08;;
54545;SDS011;40444;45.184;9.850;2024-01-16T23:04:16;75.82;;;39.67;;
54545;SDS011;40444;45.184;9.850;2024-01-16T23:10:20;75.55;;;39.22;;
54545;SDS011;40444;45.184;9.850;2024-01-16T23:13:26;88.00;;;42.92;;
54545;SDS011;40444;45.184;9.850;2024-01-16T23:15:58;83.75;;;42.13;;
54545;SDS011;40444;45.184;9.850;2024-01-16T23:18:42;87.63;;;41.85;;
54545;SDS011;40444;45.184;9.850;2024-01-16T23:21:20;81.88;;;39.63;;
54545;SDS011;40444;45.184;9.850;2024-01-16T23:24:06;78.38;;;42.60;;
54545;SDS011;40444;45.184;9.850;2024-01-16T23:26:40;81.45;;;40.05;;
54545;SDS011;40444;45.184;9.850;2024-01-16T23:29:11;75.60;;;38.67;;
54545;SDS011;40444;45.184;9.850;2024-01-16T23:31:44;84.82;;;42.78;;
54545;SDS011;40444;45.184;9.850;2024-01-16T23:34:13;79.95;;;38.58;;
54545;SDS011;40444;45.184;9.850;2024-01-16T23:36:55;85.65;;;40.63;;
54545;SDS011;40444;45.184;9.850;2024-01-16T23:39:30;82.00;;;41.90;;
54545;SDS011;40444;45.184;9.850;2024-01-16T23:42:00;81.07;;;40.45;;
54545;SDS011;40444;45.184;9.850;2024-01-16T23:44:31;81.88;;;42.28;;
54545;SDS011;40444;45.184;9.850;2024-01-16T23:47:11;80.57;;;40.97;;
54545;SDS011;40444;45.184;9.850;2024-01-16T23:49:54;78.20;;;40.95;;
54545;SDS011;40444;45.184;9.850;2024-01-16T23:52:25;86.72;;;42.80;;
54545;SDS011;40444;45.184;9.850;2024-01-16T23:54:54;84.60;;;40.75;;
54545;SDS011;40444;45.184;9.850;2024-01-16T23:57:37;90.25;;;42.53;;
